sensor_id;sensor_type;location;lat;lon;timestamp;P1;durP1;ratioP1;P2;durP2;ratioP2
22034;SDS011;11181;51.002;4.356;2023-06-14T00:01:50;5.40;;;4.63;;
22034;SDS011;11181;51.002;4.356;2023-06-14T00:04:18;8.23;;;4.40;;
22034;SDS011;11181;51.002;4.356;2023-06-14T00:06:45;6.50;;;4.57;;
22034;SDS011;11181;51.002;4.356;2023-06-14T00:09:15;6.03;;;4.60;;
22034;SDS011;11181;51.002;4.356;2023-06-14T00:11:43;6.45;;;5.10;;
22034;SDS011;11181;51.002;4.356;2023-06-14T00:14:10;6.43;;;4.88;;
22034;SDS011;11181;51.002;4.356;2023-06-14T00:16:37;6.38;;;4.78;;
22034;SDS011;11181;51.002;4.356;2023-06-14T00:19:03;6.57;;;5.22;;
22034;SDS011;11181;51.002;4.356;2023-06-14T00:21:30;7.75;;;4.68;;
22034;SDS011;11181;51.002;4.356;2023-06-14T00:23:58;7.20;;;5.53;;
22034;SDS011;11181;51.002;4.356;2023-06-14T00:26:26;5.90;;;4.82;;
22034;SDS011;11181;51.002;4.356;2023-06-14T00:28:53;7.05;;;4.85;;
22034;SDS011;11181;51.002;4.356;2023-06-14T00:31:21;8.10;;;4.95;;
22034;SDS011;11181;51.002;4.356;2023-06-14T00:33:48;6.63;;;5.53;;
22034;SDS011;11181;51.002;4.356;2023-06-14T00:36:15;6.03;;;5.22;;
22034;SDS011;11181;51.002;4.356;2023-06-14T00:38:42;8.10;;;4.85;;
22034;SDS011;11181;51.002;4.356;2023-06-14T00:41:09;5.70;;;5.15;;
22034;SDS011;11181;51.002;4.356;2023-06-14T00:43:39;8.38;;;5.60;;
22034;SDS011;11181;51.002;4.356;2023-06-14T00:46:05;9.88;;;5.45;;
22034;SDS011;11181;51.002;4.356;2023-06-14T00:48:32;10.05;;;5.88;;
22034;SDS011;11181;51.002;4.356;2023-06-14T00:50:59;10.45;;;6.55;;
22034;SDS011;11181;51.002;4.356;2023-06-14T00:53:29;10.68;;;5.28;;
22034;SDS011;11181;51.002;4.356;2023-06-14T00:55:58;6.90;;;5.65;;
22034;SDS011;11181;51.002;4.356;2023-06-14T00:58:26;9.93;;;5.15;;
22034;SDS011;11181;51.002;4.356;2023-06-14T01:00:55;10.13;;;4.90;;
22034;SDS011;11181;51.002;4.356;2023-06-14T01:03:23;7.03;;;5.68;;
22034;SDS011;11181;51.002;4.356;2023-06-14T01:05:50;7.50;;;5.68;;
22034;SDS011;11181;51.002;4.356;2023-06-14T01:08:22;7.53;;;6.05;;
22034;SDS011;11181;51.002;4.356;2023-06-14T01:11:00;8.45;;;6.05;;
22034;SDS011;11181;51.002;4.356;2023-06-14T01:13:32;9.40;;;6.32;;
22034;SDS011;11181;51.002;4.356;2023-06-14T01:16:02;6.67;;;5.33;;
22034;SDS011;11181;51.002;4.356;2023-06-14T01:18:29;7.00;;;4.40;;
22034;SDS011;11181;51.002;4.356;2023-06-14T01:20:57;6.38;;;5.22;;
22034;SDS011;11181;51.002;4.356;2023-06-14T01:23:25;6.80;;;6.10;;
22034;SDS011;11181;51.002;4.356;2023-06-14T01:25:57;10.98;;;5.85;;
22034;SDS011;11181;51.002;4.356;2023-06-14T01:28:25;6.47;;;5.45;;
22034;SDS011;11181;51.002;4.356;2023-06-14T01:30:57;10.70;;;5.18;;
22034;SDS011;11181;51.002;4.356;2023-06-14T01:33:29;10.63;;;6.40;;
22034;SDS011;11181;51.002;4.356;2023-06-14T01:35:57;9.20;;;6.40;;
22034;SDS011;11181;51.002;4.356;2023-06-14T01:38:26;6.93;;;5.90;;
22034;SDS011;11181;51.002;4.356;2023-06-14T01:40:55;8.60;;;6.30;;
22034;SDS011;11181;51.002;4.356;2023-06-14T01:43:24;7.93;;;5.87;;
22034;SDS011;11181;51.002;4.356;2023-06-14T01:45:52;8.73;;;5.77;;
22034;SDS011;11181;51.002;4.356;2023-06-14T01:48:20;8.97;;;5.87;;
22034;SDS011;11181;51.002;4.356;2023-06-14T01:50:48;7.17;;;6.33;;
22034;SDS011;11181;51.002;4.356;2023-06-14T01:53:16;7.47;;;6.67;;
22034;SDS011;11181;51.002;4.356;2023-06-14T01:55:44;7.30;;;6.00;;
22034;SDS011;11181;51.002;4.356;2023-06-14T01:58:13;7.43;;;6.50;;
22034;SDS011;11181;51.002;4.356;2023-06-14T02:00:42;6.67;;;6.00;;
22034;SDS011;11181;51.002;4.356;2023-06-14T02:03:10;7.43;;;5.90;;
22034;SDS011;11181;51.002;4.356;2023-06-14T02:05:38;6.17;;;5.57;;
22034;SDS011;11181;51.002;4.356;2023-06-14T02:08:05;9.80;;;6.03;;
22034;SDS011;11181;51.002;4.356;2023-06-14T02:10:32;7.47;;;6.13;;
22034;SDS011;11181;51.002;4.356;2023-06-14T02:13:00;8.00;;;7.17;;
22034;SDS011;11181;51.002;4.356;2023-06-14T02:15:27;8.97;;;6.20;;
22034;SDS011;11181;51.002;4.356;2023-06-14T02:17:59;7.10;;;6.40;;
22034;SDS011;11181;51.002;4.356;2023-06-14T02:20:27;7.97;;;6.50;;
22034;SDS011;11181;51.002;4.356;2023-06-14T02:22:54;10.70;;;6.77;;
22034;SDS011;11181;51.002;4.356;2023-06-14T02:25:21;12.63;;;8.07;;
22034;SDS011;11181;51.002;4.356;2023-06-14T02:27:48;7.13;;;6.20;;
22034;SDS011;11181;51.002;4.356;2023-06-14T02:30:16;8.93;;;6.60;;
22034;SDS011;11181;51.002;4.356;2023-06-14T02:32:43;7.10;;;6.40;;
22034;SDS011;11181;51.002;4.356;2023-06-14T02:35:10;8.03;;;6.67;;
22034;SDS011;11181;51.002;4.356;2023-06-14T02:37:37;7.47;;;6.40;;
22034;SDS011;11181;51.002;4.356;2023-06-14T02:40:04;8.43;;;6.27;;
22034;SDS011;11181;51.002;4.356;2023-06-14T02:42:34;8.53;;;6.43;;
22034;SDS011;11181;51.002;4.356;2023-06-14T02:45:01;7.00;;;6.00;;
22034;SDS011;11181;51.002;4.356;2023-06-14T02:47:30;10.20;;;7.00;;
22034;SDS011;11181;51.002;4.356;2023-06-14T02:49:57;7.40;;;5.93;;
22034;SDS011;11181;51.002;4.356;2023-06-14T02:52:24;8.73;;;6.57;;
22034;SDS011;11181;51.002;4.356;2023-06-14T02:54:51;10.07;;;6.30;;
22034;SDS011;11181;51.002;4.356;2023-06-14T02:57:19;8.93;;;5.97;;
22034;SDS011;11181;51.002;4.356;2023-06-14T02:59:46;7.43;;;6.27;;
22034;SDS011;11181;51.002;4.356;2023-06-14T03:02:14;12.57;;;6.37;;
22034;SDS011;11181;51.002;4.356;2023-06-14T03:04:42;6.57;;;5.90;;
22034;SDS011;11181;51.002;4.356;2023-06-14T03:07:09;12.10;;;6.87;;
22034;SDS011;11181;51.002;4.356;2023-06-14T03:09:37;8.33;;;6.23;;
22034;SDS011;11181;51.002;4.356;2023-06-14T03:12:05;6.13;;;5.53;;
22034;SDS011;11181;51.002;4.356;2023-06-14T03:14:34;7.77;;;5.63;;
22034;SDS011;11181;51.002;4.356;2023-06-14T03:17:01;8.00;;;6.40;;
22034;SDS011;11181;51.002;4.356;2023-06-14T03:19:29;6.80;;;5.87;;
22034;SDS011;11181;51.002;4.356;2023-06-14T03:21:58;7.20;;;5.70;;
22034;SDS011;11181;51.002;4.356;2023-06-14T03:24:25;7.10;;;5.67;;
22034;SDS011;11181;51.002;4.356;2023-06-14T03:26:53;8.77;;;5.60;;
22034;SDS011;11181;51.002;4.356;2023-06-14T03:29:21;5.77;;;5.00;;
22034;SDS011;11181;51.002;4.356;2023-06-14T03:31:58;10.00;;;6.53;;
22034;SDS011;11181;51.002;4.356;2023-06-14T03:34:26;5.73;;;5.13;;
22034;SDS011;11181;51.002;4.356;2023-06-14T03:36:53;8.50;;;5.67;;
22034;SDS011;11181;51.002;4.356;2023-06-14T03:39:24;8.03;;;5.07;;
22034;SDS011;11181;51.002;4.356;2023-06-14T03:41:51;9.60;;;6.40;;
22034;SDS011;11181;51.002;4.356;2023-06-14T03:44:18;6.83;;;5.23;;
22034;SDS011;11181;51.002;4.356;2023-06-14T03:46:45;10.67;;;6.50;;
22034;SDS011;11181;51.002;4.356;2023-06-14T03:49:13;7.73;;;5.87;;
22034;SDS011;11181;51.002;4.356;2023-06-14T03:51:41;6.90;;;5.60;;
22034;SDS011;11181;51.002;4.356;2023-06-14T03:54:08;6.03;;;5.30;;
22034;SDS011;11181;51.002;4.356;2023-06-14T03:56:36;8.17;;;5.80;;
22034;SDS011;11181;51.002;4.356;2023-06-14T03:59:03;11.77;;;5.00;;
22034;SDS011;11181;51.002;4.356;2023-06-14T04:01:30;9.33;;;5.60;;
22034;SDS011;11181;51.002;4.356;2023-06-14T04:03:58;7.30;;;5.20;;
22034;SDS011;11181;51.002;4.356;2023-06-14T04:06:26;10.57;;;5.40;;
22034;SDS011;11181;51.002;4.356;2023-06-14T04:08:57;8.57;;;5.37;;
22034;SDS011;11181;51.002;4.356;2023-06-14T04:11:27;11.33;;;6.20;;
22034;SDS011;11181;51.002;4.356;2023-06-14T04:13:55;8.90;;;4.87;;
22034;SDS011;11181;51.002;4.356;2023-06-14T04:16:24;9.87;;;5.17;;
22034;SDS011;11181;51.002;4.356;2023-06-14T04:18:54;6.00;;;5.40;;
22034;SDS011;11181;51.002;4.356;2023-06-14T04:21:23;7.47;;;4.73;;
22034;SDS011;11181;51.002;4.356;2023-06-14T04:23:50;6.83;;;5.23;;
22034;SDS011;11181;51.002;4.356;2023-06-14T04:26:20;5.53;;;5.03;;
22034;SDS011;11181;51.002;4.356;2023-06-14T04:28:48;5.53;;;5.03;;
22034;SDS011;11181;51.002;4.356;2023-06-14T04:31:17;5.63;;;4.90;;
22034;SDS011;11181;51.002;4.356;2023-06-14T04:33:46;7.90;;;5.73;;
22034;SDS011;11181;51.002;4.356;2023-06-14T04:36:15;6.33;;;5.30;;
22034;SDS011;11181;51.002;4.356;2023-06-14T04:38:42;10.37;;;6.13;;
22034;SDS011;11181;51.002;4.356;2023-06-14T04:41:11;6.73;;;4.93;;
22034;SDS011;11181;51.002;4.356;2023-06-14T04:43:38;5.57;;;4.70;;
22034;SDS011;11181;51.002;4.356;2023-06-14T04:46:05;5.83;;;5.00;;
22034;SDS011;11181;51.002;4.356;2023-06-14T04:48:37;6.37;;;5.40;;
22034;SDS011;11181;51.002;4.356;2023-06-14T04:51:06;8.37;;;5.77;;
22034;SDS011;11181;51.002;4.356;2023-06-14T04:53:33;8.90;;;5.80;;
22034;SDS011;11181;51.002;4.356;2023-06-14T04:56:00;7.37;;;5.40;;
22034;SDS011;11181;51.002;4.356;2023-06-14T04:58:28;10.83;;;6.07;;
22034;SDS011;11181;51.002;4.356;2023-06-14T05:00:55;8.40;;;5.67;;
22034;SDS011;11181;51.002;4.356;2023-06-14T05:03:24;7.97;;;5.37;;
22034;SDS011;11181;51.002;4.356;2023-06-14T05:05:53;7.53;;;5.60;;
22034;SDS011;11181;51.002;4.356;2023-06-14T05:08:20;7.90;;;5.50;;
22034;SDS011;11181;51.002;4.356;2023-06-14T05:10:48;9.43;;;5.87;;
22034;SDS011;11181;51.002;4.356;2023-06-14T05:13:15;8.60;;;5.73;;
22034;SDS011;11181;51.002;4.356;2023-06-14T05:15:42;7.43;;;5.63;;
22034;SDS011;11181;51.002;4.356;2023-06-14T05:18:09;6.47;;;5.07;;
22034;SDS011;11181;51.002;4.356;2023-06-14T05:20:38;8.10;;;5.40;;
22034;SDS011;11181;51.002;4.356;2023-06-14T05:23:08;7.40;;;5.37;;
22034;SDS011;11181;51.002;4.356;2023-06-14T05:25:39;6.60;;;5.40;;
22034;SDS011;11181;51.002;4.356;2023-06-14T05:28:07;9.03;;;5.97;;
22034;SDS011;11181;51.002;4.356;2023-06-14T05:30:34;9.37;;;6.37;;
22034;SDS011;11181;51.002;4.356;2023-06-14T05:33:02;8.30;;;6.00;;
22034;SDS011;11181;51.002;4.356;2023-06-14T05:35:29;11.57;;;5.70;;
22034;SDS011;11181;51.002;4.356;2023-06-14T05:37:56;7.03;;;6.13;;
22034;SDS011;11181;51.002;4.356;2023-06-14T05:40:24;8.73;;;6.03;;
22034;SDS011;11181;51.002;4.356;2023-06-14T05:42:51;10.47;;;5.90;;
22034;SDS011;11181;51.002;4.356;2023-06-14T05:45:18;8.87;;;5.83;;
22034;SDS011;11181;51.002;4.356;2023-06-14T05:47:45;8.67;;;6.47;;
22034;SDS011;11181;51.002;4.356;2023-06-14T05:50:12;6.73;;;5.60;;
22034;SDS011;11181;51.002;4.356;2023-06-14T05:52:39;7.40;;;5.10;;
22034;SDS011;11181;51.002;4.356;2023-06-14T05:55:06;9.37;;;6.30;;
22034;SDS011;11181;51.002;4.356;2023-06-14T05:57:38;8.63;;;6.77;;
22034;SDS011;11181;51.002;4.356;2023-06-14T06:00:07;9.83;;;6.13;;
22034;SDS011;11181;51.002;4.356;2023-06-14T06:02:39;11.40;;;6.10;;
22034;SDS011;11181;51.002;4.356;2023-06-14T06:05:06;6.73;;;5.63;;
22034;SDS011;11181;51.002;4.356;2023-06-14T06:07:33;9.60;;;6.93;;
22034;SDS011;11181;51.002;4.356;2023-06-14T06:10:00;8.27;;;6.07;;
22034;SDS011;11181;51.002;4.356;2023-06-14T06:12:27;8.83;;;6.97;;
22034;SDS011;11181;51.002;4.356;2023-06-14T06:14:56;9.20;;;5.93;;
22034;SDS011;11181;51.002;4.356;2023-06-14T06:17:23;11.57;;;6.53;;
22034;SDS011;11181;51.002;4.356;2023-06-14T06:19:50;9.40;;;6.30;;
22034;SDS011;11181;51.002;4.356;2023-06-14T06:22:17;8.23;;;6.17;;
22034;SDS011;11181;51.002;4.356;2023-06-14T06:24:44;10.33;;;6.33;;
22034;SDS011;11181;51.002;4.356;2023-06-14T06:27:11;6.97;;;6.13;;
22034;SDS011;11181;51.002;4.356;2023-06-14T06:29:38;13.40;;;6.27;;
22034;SDS011;11181;51.002;4.356;2023-06-14T06:32:07;16.23;;;7.53;;
22034;SDS011;11181;51.002;4.356;2023-06-14T06:34:34;9.70;;;6.35;;
22034;SDS011;11181;51.002;4.356;2023-06-14T06:37:02;9.02;;;6.68;;
22034;SDS011;11181;51.002;4.356;2023-06-14T06:39:29;10.00;;;6.53;;
22034;SDS011;11181;51.002;4.356;2023-06-14T06:41:56;8.00;;;6.20;;
22034;SDS011;11181;51.002;4.356;2023-06-14T06:44:23;9.27;;;6.22;;
22034;SDS011;11181;51.002;4.356;2023-06-14T06:46:50;8.73;;;6.43;;
22034;SDS011;11181;51.002;4.356;2023-06-14T06:49:18;12.38;;;6.13;;
22034;SDS011;11181;51.002;4.356;2023-06-14T06:51:58;8.43;;;5.57;;
22034;SDS011;11181;51.002;4.356;2023-06-14T06:54:26;10.77;;;6.50;;
22034;SDS011;11181;51.002;4.356;2023-06-14T06:56:53;9.45;;;6.18;;
22034;SDS011;11181;51.002;4.356;2023-06-14T06:59:20;9.07;;;5.55;;
22034;SDS011;11181;51.002;4.356;2023-06-14T07:01:47;11.00;;;6.55;;
22034;SDS011;11181;51.002;4.356;2023-06-14T07:04:14;11.07;;;5.70;;
22034;SDS011;11181;51.002;4.356;2023-06-14T07:06:42;8.32;;;5.60;;
22034;SDS011;11181;51.002;4.356;2023-06-14T07:09:09;6.75;;;5.85;;
22034;SDS011;11181;51.002;4.356;2023-06-14T07:11:39;10.77;;;6.35;;
22034;SDS011;11181;51.002;4.356;2023-06-14T07:14:06;7.15;;;5.63;;
22034;SDS011;11181;51.002;4.356;2023-06-14T07:16:33;7.95;;;5.78;;
22034;SDS011;11181;51.002;4.356;2023-06-14T07:19:00;7.13;;;5.65;;
22034;SDS011;11181;51.002;4.356;2023-06-14T07:21:28;6.57;;;5.55;;
22034;SDS011;11181;51.002;4.356;2023-06-14T07:23:56;7.30;;;5.82;;
22034;SDS011;11181;51.002;4.356;2023-06-14T07:26:23;8.00;;;5.25;;
22034;SDS011;11181;51.002;4.356;2023-06-14T07:28:50;11.27;;;5.28;;
22034;SDS011;11181;51.002;4.356;2023-06-14T07:31:17;8.38;;;6.05;;
22034;SDS011;11181;51.002;4.356;2023-06-14T07:33:44;7.30;;;5.28;;
22034;SDS011;11181;51.002;4.356;2023-06-14T07:36:12;7.60;;;6.30;;
22034;SDS011;11181;51.002;4.356;2023-06-14T07:38:38;7.70;;;5.45;;
22034;SDS011;11181;51.002;4.356;2023-06-14T07:41:07;8.40;;;6.43;;
22034;SDS011;11181;51.002;4.356;2023-06-14T07:43:34;6.88;;;5.63;;
22034;SDS011;11181;51.002;4.356;2023-06-14T07:46:01;7.80;;;5.97;;
22034;SDS011;11181;51.002;4.356;2023-06-14T07:48:28;10.15;;;5.60;;
22034;SDS011;11181;51.002;4.356;2023-06-14T07:50:55;8.68;;;5.90;;
22034;SDS011;11181;51.002;4.356;2023-06-14T07:53:22;7.40;;;5.80;;
22034;SDS011;11181;51.002;4.356;2023-06-14T07:55:49;5.38;;;4.90;;
22034;SDS011;11181;51.002;4.356;2023-06-14T07:58:18;6.75;;;5.10;;
22034;SDS011;11181;51.002;4.356;2023-06-14T08:00:45;7.00;;;5.10;;
22034;SDS011;11181;51.002;4.356;2023-06-14T08:03:12;8.23;;;5.60;;
22034;SDS011;11181;51.002;4.356;2023-06-14T08:05:39;6.55;;;4.95;;
22034;SDS011;11181;51.002;4.356;2023-06-14T08:08:06;8.35;;;6.07;;
22034;SDS011;11181;51.002;4.356;2023-06-14T08:10:33;9.48;;;5.07;;
22034;SDS011;11181;51.002;4.356;2023-06-14T08:13:00;6.85;;;5.22;;
22034;SDS011;11181;51.002;4.356;2023-06-14T08:15:28;5.75;;;4.35;;
22034;SDS011;11181;51.002;4.356;2023-06-14T08:17:55;7.57;;;4.70;;
22034;SDS011;11181;51.002;4.356;2023-06-14T08:20:24;10.20;;;5.07;;
22034;SDS011;11181;51.002;4.356;2023-06-14T08:22:51;9.18;;;5.07;;
22034;SDS011;11181;51.002;4.356;2023-06-14T08:25:21;9.63;;;5.50;;
22034;SDS011;11181;51.002;4.356;2023-06-14T08:27:48;7.07;;;5.38;;
22034;SDS011;11181;51.002;4.356;2023-06-14T08:30:15;6.38;;;5.07;;
22034;SDS011;11181;51.002;4.356;2023-06-14T08:32:44;5.78;;;5.05;;
22034;SDS011;11181;51.002;4.356;2023-06-14T08:35:11;10.63;;;5.50;;
22034;SDS011;11181;51.002;4.356;2023-06-14T08:37:39;8.02;;;5.07;;
22034;SDS011;11181;51.002;4.356;2023-06-14T08:40:11;7.68;;;4.97;;
22034;SDS011;11181;51.002;4.356;2023-06-14T08:42:44;7.47;;;5.30;;
22034;SDS011;11181;51.002;4.356;2023-06-14T08:45:13;8.63;;;5.32;;
22034;SDS011;11181;51.002;4.356;2023-06-14T08:47:40;7.07;;;5.05;;
22034;SDS011;11181;51.002;4.356;2023-06-14T08:50:09;5.25;;;4.75;;
22034;SDS011;11181;51.002;4.356;2023-06-14T08:52:37;6.60;;;5.13;;
22034;SDS011;11181;51.002;4.356;2023-06-14T08:55:11;8.07;;;6.47;;
22034;SDS011;11181;51.002;4.356;2023-06-14T08:57:38;7.35;;;4.70;;
22034;SDS011;11181;51.002;4.356;2023-06-14T09:00:07;10.15;;;5.28;;
22034;SDS011;11181;51.002;4.356;2023-06-14T09:02:38;5.38;;;4.75;;
22034;SDS011;11181;51.002;4.356;2023-06-14T09:05:09;8.50;;;4.72;;
22034;SDS011;11181;51.002;4.356;2023-06-14T09:07:38;7.03;;;4.55;;
22034;SDS011;11181;51.002;4.356;2023-06-14T09:10:07;7.60;;;5.95;;
22034;SDS011;11181;51.002;4.356;2023-06-14T09:12:35;6.38;;;5.38;;
22034;SDS011;11181;51.002;4.356;2023-06-14T09:15:03;5.95;;;5.07;;
22034;SDS011;11181;51.002;4.356;2023-06-14T09:17:32;5.22;;;4.68;;
22034;SDS011;11181;51.002;4.356;2023-06-14T09:20:00;8.15;;;5.60;;
22034;SDS011;11181;51.002;4.356;2023-06-14T09:22:31;7.07;;;4.65;;
22034;SDS011;11181;51.002;4.356;2023-06-14T09:24:59;5.72;;;4.80;;
22034;SDS011;11181;51.002;4.356;2023-06-14T09:27:26;6.07;;;4.82;;
22034;SDS011;11181;51.002;4.356;2023-06-14T09:29:55;6.25;;;4.57;;
22034;SDS011;11181;51.002;4.356;2023-06-14T09:32:22;6.60;;;5.10;;
22034;SDS011;11181;51.002;4.356;2023-06-14T09:34:49;11.48;;;5.15;;
22034;SDS011;11181;51.002;4.356;2023-06-14T09:37:29;9.02;;;5.13;;
22034;SDS011;11181;51.002;4.356;2023-06-14T09:39:58;5.70;;;4.60;;
22034;SDS011;11181;51.002;4.356;2023-06-14T09:42:25;6.20;;;4.80;;
22034;SDS011;11181;51.002;4.356;2023-06-14T09:44:54;6.38;;;4.72;;
22034;SDS011;11181;51.002;4.356;2023-06-14T09:47:21;7.35;;;4.75;;
22034;SDS011;11181;51.002;4.356;2023-06-14T09:49:50;6.85;;;4.68;;
22034;SDS011;11181;51.002;4.356;2023-06-14T09:52:17;7.70;;;4.70;;
22034;SDS011;11181;51.002;4.356;2023-06-14T09:54:46;7.93;;;4.43;;
22034;SDS011;11181;51.002;4.356;2023-06-14T09:57:16;6.07;;;4.30;;
22034;SDS011;11181;51.002;4.356;2023-06-14T09:59:48;7.13;;;4.78;;
22034;SDS011;11181;51.002;4.356;2023-06-14T10:02:21;9.25;;;4.00;;
22034;SDS011;11181;51.002;4.356;2023-06-14T10:04:53;4.40;;;3.95;;
22034;SDS011;11181;51.002;4.356;2023-06-14T10:07:26;5.13;;;4.35;;
22034;SDS011;11181;51.002;4.356;2023-06-14T10:09:56;4.22;;;3.83;;
22034;SDS011;11181;51.002;4.356;2023-06-14T10:12:25;9.15;;;4.38;;
22034;SDS011;11181;51.002;4.356;2023-06-14T10:14:52;5.60;;;4.20;;
22034;SDS011;11181;51.002;4.356;2023-06-14T10:17:22;10.68;;;4.15;;
22034;SDS011;11181;51.002;4.356;2023-06-14T10:19:58;6.63;;;4.40;;
22034;SDS011;11181;51.002;4.356;2023-06-14T10:22:38;5.25;;;3.63;;
22034;SDS011;11181;51.002;4.356;2023-06-14T10:25:12;6.05;;;4.22;;
22034;SDS011;11181;51.002;4.356;2023-06-14T10:27:53;7.38;;;4.15;;
22034;SDS011;11181;51.002;4.356;2023-06-14T10:30:29;6.30;;;4.13;;
22034;SDS011;11181;51.002;4.356;2023-06-14T10:33:05;8.65;;;5.10;;
22034;SDS011;11181;51.002;4.356;2023-06-14T10:35:32;5.72;;;4.28;;
22034;SDS011;11181;51.002;4.356;2023-06-14T10:38:06;5.47;;;4.47;;
22034;SDS011;11181;51.002;4.356;2023-06-14T10:40:34;5.88;;;3.90;;
22034;SDS011;11181;51.002;4.356;2023-06-14T10:48:42;8.82;;;3.75;;
22034;SDS011;11181;51.002;4.356;2023-06-14T10:51:15;4.72;;;3.65;;
22034;SDS011;11181;51.002;4.356;2023-06-14T10:53:46;4.43;;;3.45;;
22034;SDS011;11181;51.002;4.356;2023-06-14T10:56:27;4.68;;;3.58;;
22034;SDS011;11181;51.002;4.356;2023-06-14T10:58:56;6.93;;;3.90;;
22034;SDS011;11181;51.002;4.356;2023-06-14T11:01:28;5.55;;;3.38;;
22034;SDS011;11181;51.002;4.356;2023-06-14T11:04:11;9.13;;;3.72;;
22034;SDS011;11181;51.002;4.356;2023-06-14T11:06:47;6.88;;;3.85;;
22034;SDS011;11181;51.002;4.356;2023-06-14T11:09:24;6.03;;;3.60;;
22034;SDS011;11181;51.002;4.356;2023-06-14T11:12:11;7.10;;;4.13;;
22034;SDS011;11181;51.002;4.356;2023-06-14T11:14:40;5.90;;;3.72;;
22034;SDS011;11181;51.002;4.356;2023-06-14T11:17:15;5.20;;;3.88;;
22034;SDS011;11181;51.002;4.356;2023-06-14T11:19:45;4.65;;;3.20;;
22034;SDS011;11181;51.002;4.356;2023-06-14T11:22:12;6.00;;;3.92;;
22034;SDS011;11181;51.002;4.356;2023-06-14T11:24:42;3.38;;;3.05;;
22034;SDS011;11181;51.002;4.356;2023-06-14T11:27:09;3.38;;;3.05;;
22034;SDS011;11181;51.002;4.356;2023-06-14T11:29:36;5.45;;;3.00;;
22034;SDS011;11181;51.002;4.356;2023-06-14T11:32:07;6.00;;;3.65;;
22034;SDS011;11181;51.002;4.356;2023-06-14T11:34:37;7.63;;;4.57;;
22034;SDS011;11181;51.002;4.356;2023-06-14T11:37:04;6.15;;;3.10;;
22034;SDS011;11181;51.002;4.356;2023-06-14T11:39:31;6.88;;;3.70;;
22034;SDS011;11181;51.002;4.356;2023-06-14T11:42:01;6.57;;;3.58;;
22034;SDS011;11181;51.002;4.356;2023-06-14T11:44:29;3.78;;;3.47;;
22034;SDS011;11181;51.002;4.356;2023-06-14T11:46:56;4.70;;;3.17;;
22034;SDS011;11181;51.002;4.356;2023-06-14T11:49:24;4.05;;;3.30;;
22034;SDS011;11181;51.002;4.356;2023-06-14T11:51:52;7.75;;;3.45;;
22034;SDS011;11181;51.002;4.356;2023-06-14T11:54:20;5.75;;;3.95;;
22034;SDS011;11181;51.002;4.356;2023-06-14T11:56:47;12.90;;;3.67;;
22034;SDS011;11181;51.002;4.356;2023-06-14T11:59:14;4.90;;;3.40;;
22034;SDS011;11181;51.002;4.356;2023-06-14T12:01:42;4.00;;;2.80;;
22034;SDS011;11181;51.002;4.356;2023-06-14T12:04:10;4.50;;;3.25;;
22034;SDS011;11181;51.002;4.356;2023-06-14T12:06:38;4.63;;;3.00;;
22034;SDS011;11181;51.002;4.356;2023-06-14T12:09:06;9.07;;;3.30;;
22034;SDS011;11181;51.002;4.356;2023-06-14T12:11:38;5.15;;;3.10;;
22034;SDS011;11181;51.002;4.356;2023-06-14T12:14:05;5.38;;;2.90;;
22034;SDS011;11181;51.002;4.356;2023-06-14T12:16:32;7.47;;;3.20;;
22034;SDS011;11181;51.002;4.356;2023-06-14T12:19:09;3.65;;;3.10;;
22034;SDS011;11181;51.002;4.356;2023-06-14T12:21:39;5.88;;;3.08;;
22034;SDS011;11181;51.002;4.356;2023-06-14T12:24:07;4.85;;;2.85;;
22034;SDS011;11181;51.002;4.356;2023-06-14T12:26:37;3.58;;;2.97;;
22034;SDS011;11181;51.002;4.356;2023-06-14T12:29:06;5.10;;;3.00;;
22034;SDS011;11181;51.002;4.356;2023-06-14T12:31:33;3.53;;;3.10;;
22034;SDS011;11181;51.002;4.356;2023-06-14T12:34:00;5.95;;;3.42;;
22034;SDS011;11181;51.002;4.356;2023-06-14T12:36:27;4.40;;;3.60;;
22034;SDS011;11181;51.002;4.356;2023-06-14T12:38:56;11.50;;;3.28;;
22034;SDS011;11181;51.002;4.356;2023-06-14T12:41:23;4.40;;;3.28;;
22034;SDS011;11181;51.002;4.356;2023-06-14T12:43:51;5.75;;;2.83;;
22034;SDS011;11181;51.002;4.356;2023-06-14T12:46:18;3.25;;;2.72;;
22034;SDS011;11181;51.002;4.356;2023-06-14T12:48:46;5.60;;;3.00;;
22034;SDS011;11181;51.002;4.356;2023-06-14T12:51:12;3.50;;;2.80;;
22034;SDS011;11181;51.002;4.356;2023-06-14T12:53:39;4.85;;;2.72;;
22034;SDS011;11181;51.002;4.356;2023-06-14T12:56:08;4.50;;;2.92;;
22034;SDS011;11181;51.002;4.356;2023-06-14T12:58:35;5.82;;;2.92;;
22034;SDS011;11181;51.002;4.356;2023-06-14T13:01:01;3.55;;;2.83;;
22034;SDS011;11181;51.002;4.356;2023-06-14T13:03:28;3.53;;;2.38;;
22034;SDS011;11181;51.002;4.356;2023-06-14T13:05:55;4.03;;;2.90;;
22034;SDS011;11181;51.002;4.356;2023-06-14T13:08:22;5.85;;;2.78;;
22034;SDS011;11181;51.002;4.356;2023-06-14T13:10:49;4.07;;;2.70;;
22034;SDS011;11181;51.002;4.356;2023-06-14T13:13:17;2.53;;;2.33;;
22034;SDS011;11181;51.002;4.356;2023-06-14T13:15:44;4.13;;;3.13;;
22034;SDS011;11181;51.002;4.356;2023-06-14T13:18:11;9.35;;;2.50;;
22034;SDS011;11181;51.002;4.356;2023-06-14T13:20:39;2.75;;;2.40;;
22034;SDS011;11181;51.002;4.356;2023-06-14T13:23:06;4.95;;;2.50;;
22034;SDS011;11181;51.002;4.356;2023-06-14T13:25:33;3.65;;;2.38;;
22034;SDS011;11181;51.002;4.356;2023-06-14T13:28:00;2.90;;;2.63;;
22034;SDS011;11181;51.002;4.356;2023-06-14T13:30:28;3.92;;;2.28;;
22034;SDS011;11181;51.002;4.356;2023-06-14T13:32:55;2.72;;;2.50;;
22034;SDS011;11181;51.002;4.356;2023-06-14T13:35:22;5.15;;;2.53;;
22034;SDS011;11181;51.002;4.356;2023-06-14T13:37:50;4.43;;;2.75;;
22034;SDS011;11181;51.002;4.356;2023-06-14T13:40:18;3.58;;;1.95;;
22034;SDS011;11181;51.002;4.356;2023-06-14T13:42:45;2.03;;;1.83;;
22034;SDS011;11181;51.002;4.356;2023-06-14T13:45:13;2.95;;;2.05;;
22034;SDS011;11181;51.002;4.356;2023-06-14T13:47:42;2.00;;;1.80;;
22034;SDS011;11181;51.002;4.356;2023-06-14T13:50:09;3.75;;;1.95;;
22034;SDS011;11181;51.002;4.356;2023-06-14T13:52:37;3.28;;;1.80;;
22034;SDS011;11181;51.002;4.356;2023-06-14T13:55:05;2.92;;;2.13;;
22034;SDS011;11181;51.002;4.356;2023-06-14T13:57:32;2.63;;;2.17;;
22034;SDS011;11181;51.002;4.356;2023-06-14T13:59:59;3.42;;;2.47;;
22034;SDS011;11181;51.002;4.356;2023-06-14T14:02:27;2.88;;;1.73;;
22034;SDS011;11181;51.002;4.356;2023-06-14T14:04:56;3.83;;;1.60;;
22034;SDS011;11181;51.002;4.356;2023-06-14T14:07:23;3.08;;;1.70;;
22034;SDS011;11181;51.002;4.356;2023-06-14T14:09:50;2.08;;;1.80;;
22034;SDS011;11181;51.002;4.356;2023-06-14T14:12:18;2.03;;;1.17;;
22034;SDS011;11181;51.002;4.356;2023-06-14T14:14:45;1.48;;;1.35;;
22034;SDS011;11181;51.002;4.356;2023-06-14T14:17:12;2.75;;;1.40;;
22034;SDS011;11181;51.002;4.356;2023-06-14T14:19:39;3.30;;;1.40;;
22034;SDS011;11181;51.002;4.356;2023-06-14T14:22:07;1.83;;;1.25;;
22034;SDS011;11181;51.002;4.356;2023-06-14T14:24:34;2.45;;;1.63;;
22034;SDS011;11181;51.002;4.356;2023-06-14T14:27:01;1.63;;;1.42;;
22034;SDS011;11181;51.002;4.356;2023-06-14T14:29:28;4.30;;;1.38;;
22034;SDS011;11181;51.002;4.356;2023-06-14T14:31:55;3.35;;;1.40;;
22034;SDS011;11181;51.002;4.356;2023-06-14T14:34:22;2.53;;;1.35;;
22034;SDS011;11181;51.002;4.356;2023-06-14T14:36:49;2.58;;;1.45;;
22034;SDS011;11181;51.002;4.356;2023-06-14T14:39:17;1.65;;;1.50;;
22034;SDS011;11181;51.002;4.356;2023-06-14T14:41:44;1.42;;;1.23;;
22034;SDS011;11181;51.002;4.356;2023-06-14T14:44:11;1.80;;;1.40;;
22034;SDS011;11181;51.002;4.356;2023-06-14T14:46:38;3.10;;;1.17;;
22034;SDS011;11181;51.002;4.356;2023-06-14T14:49:05;1.63;;;1.50;;
22034;SDS011;11181;51.002;4.356;2023-06-14T14:51:32;4.80;;;1.65;;
22034;SDS011;11181;51.002;4.356;2023-06-14T14:53:58;3.22;;;1.40;;
22034;SDS011;11181;51.002;4.356;2023-06-14T14:56:27;2.13;;;1.38;;
22034;SDS011;11181;51.002;4.356;2023-06-14T14:58:54;3.22;;;1.40;;